Kinta, Oklahoma
Current Conditions -  °F | °C
As of 4:55 AM on Sunday 23 Nov 2014 (Local Time) from KGZL Reporting Station
Overcast Overcast  
Wind Chill: 55°   Ceiling: 1600
Heat Index: 55°   Visibility: 9mi
Dew Point: 55°   Wind: 5mph
Humidity: 100%   Direction: 120°ESE
Pressure: 29.58"   Gusts: NA
Location:  35.12°N, 95.24°W
Report Text: KGZL 231055Z AUTO 12004KT 9SM OVC016 13/13 A2958 RMK AO2
Loading
Personal Weather Stations






























Interactive Weather Map New forecast layout! Learn more

10-Day Weather Forecast

Advertisements
Track Severe Weather on mobile